Time;durP1;ratioP1;P1;durP2;ratioP2;P2;SDS_P1;SDS_P2;PMS_P1;PMS_P2;Temp;Humidity;BMP_temperature;BMP_pressure;BME280_temperature;BME280_humidity;BME280_pressure;Samples;Min_cycle;Max_cycle;Signal;HPM_P1;HPM_P2
2021/08/12 00:00:12;;;;;;;7.13;5.80;;;;;;;;;;5074777;28;20088;-76
2021/08/12 00:02:37;;;;;;;8.40;5.90;;;;;;;;;;5089634;28;20047;-77
2021/08/12 00:05:06;;;;;;;8.68;5.63;;;;;;;;;;5074920;28;20032;-77
2021/08/12 00:07:31;;;;;;;6.53;5.65;;;;;;;;;;5093024;28;20032;-76
2021/08/12 00:09:59;;;;;;;6.53;5.20;;;;;;;;;;5096321;28;20036;-76
2021/08/12 00:12:25;;;;;;;7.57;5.20;;;;;;;;;;5094668;28;20024;-76
2021/08/12 00:14:51;;;;;;;6.25;5.40;;;;;;;;;;5094526;28;20043;-77
2021/08/12 00:17:16;;;;;;;12.63;5.10;;;;;;;;;;5073967;28;20051;-77
2021/08/12 00:19:42;;;;;;;10.23;5.22;;;;;;;;;;5075572;28;20040;-77
2021/08/12 00:22:07;;;;;;;7.07;5.00;;;;;;;;;;5074609;28;20032;-77
2021/08/12 00:24:32;;;;;;;7.80;5.60;;;;;;;;;;5093730;28;20028;-77
2021/08/12 00:26:58;;;;;;;6.68;5.82;;;;;;;;;;5081081;28;20040;-77
2021/08/12 00:29:24;;;;;;;7.95;5.38;;;;;;;;;;5056620;28;20059;-76
2021/08/12 00:31:50;;;;;;;9.10;5.18;;;;;;;;;;5056811;28;20042;-77
2021/08/12 00:34:15;;;;;;;9.55;5.65;;;;;;;;;;5072911;28;20394;-78
2021/08/12 00:36:41;;;;;;;8.05;4.65;;;;;;;;;;5062958;28;20027;-76
2021/08/12 00:39:08;;;;;;;6.10;5.03;;;;;;;;;;5094267;28;20035;-77
2021/08/12 00:41:35;;;;;;;4.88;3.80;;;;;;;;;;5094484;28;20116;-77
2021/08/12 00:44:04;;;;;;;4.53;4.07;;;;;;;;;;5076730;28;20024;-77
2021/08/12 00:46:30;;;;;;;5.53;4.55;;;;;;;;;;5093940;28;20093;-77
2021/08/12 00:48:55;;;;;;;5.88;3.92;;;;;;;;;;5094492;28;20447;-76
2021/08/12 00:51:23;;;;;;;4.03;3.58;;;;;;;;;;5094740;28;20032;-77
2021/08/12 00:53:49;;;;;;;7.35;4.20;;;;;;;;;;5075854;28;20082;-77
2021/08/12 00:56:17;;;;;;;6.38;4.57;;;;;;;;;;5076784;28;20025;-78
2021/08/12 00:58:43;;;;;;;5.53;5.00;;;;;;;;;;5092540;28;20066;-77
2021/08/12 01:01:09;;;;;;;5.00;4.30;;;;;;;;;;5095346;28;20036;-79
2021/08/12 01:03:34;;;;;;;11.02;5.15;;;;;;;;;;5075381;28;20071;-77
2021/08/12 01:06:02;;;;;;;6.57;5.38;;;;;;;;;;5076991;28;20575;-77
2021/08/12 01:08:54;;;;;;;11.63;5.75;;;;;;;;;;5093750;28;20089;-77
2021/08/12 01:11:49;;;;;;;6.88;5.97;;;;;;;;;;5093857;28;20489;-77
2021/08/12 01:14:30;;;;;;;6.32;4.95;;;;;;;;;;5091905;28;20436;-77
2021/08/12 01:17:04;;;;;;;12.05;5.45;;;;;;;;;;5076567;28;20451;-77
2021/08/12 01:19:54;;;;;;;9.70;5.15;;;;;;;;;;5076433;28;20468;-77
2021/08/12 01:22:23;;;;;;;7.90;5.40;;;;;;;;;;5076229;28;20038;-77
2021/08/12 01:24:53;;;;;;;5.63;5.10;;;;;;;;;;5087889;28;20025;-77
2021/08/12 01:27:22;;;;;;;6.60;5.57;;;;;;;;;;5078103;28;20027;-77
2021/08/12 01:30:09;;;;;;;7.53;5.50;;;;;;;;;;5093386;28;20066;-77
2021/08/12 01:32:59;;;;;;;5.97;5.00;;;;;;;;;;5093142;28;20067;-77
2021/08/12 01:35:29;;;;;;;5.03;4.03;;;;;;;;;;5075579;28;20040;-77
2021/08/12 01:38:07;;;;;;;8.50;5.40;;;;;;;;;;5076249;28;20032;-77
2021/08/12 01:40:35;;;;;;;7.72;4.75;;;;;;;;;;5093025;28;20024;-76
2021/08/12 01:43:08;;;;;;;5.68;5.07;;;;;;;;;;5092459;28;20016;-77
2021/08/12 01:45:38;;;;;;;9.02;6.05;;;;;;;;;;5092348;28;20035;-77
2021/08/12 01:48:08;;;;;;;6.43;5.63;;;;;;;;;;5092817;28;20028;-77
2021/08/12 01:50:34;;;;;;;9.00;5.60;;;;;;;;;;5075641;28;20379;-77
2021/08/12 01:53:02;;;;;;;7.43;5.80;;;;;;;;;;5075701;28;20062;-77
2021/08/12 01:55:33;;;;;;;5.47;4.53;;;;;;;;;;5087509;28;20039;-77
2021/08/12 01:58:00;;;;;;;8.32;5.80;;;;;;;;;;5092741;28;20101;-76
2021/08/12 02:00:30;;;;;;;6.32;5.35;;;;;;;;;;5092462;28;20036;-77
2021/08/12 02:03:01;;;;;;;5.30;4.60;;;;;;;;;;5092423;28;20065;-77
2021/08/12 02:05:28;;;;;;;8.32;4.78;;;;;;;;;;5091661;28;20055;-76
2021/08/12 02:07:54;;;;;;;7.53;4.25;;;;;;;;;;5093374;28;20435;-77
2021/08/12 02:10:21;;;;;;;5.13;3.88;;;;;;;;;;5074360;28;20392;-77
2021/08/12 02:12:46;;;;;;;6.40;4.90;;;;;;;;;;5092620;28;20114;-77
2021/08/12 02:15:14;;;;;;;6.63;4.95;;;;;;;;;;5074049;28;20485;-76
2021/08/12 02:17:40;;;;;;;9.18;6.00;;;;;;;;;;5091929;28;20043;-76
2021/08/12 02:20:08;;;;;;;7.68;5.32;;;;;;;;;;5074333;28;20032;-77
2021/08/12 02:22:47;;;;;;;12.05;6.18;;;;;;;;;;5075751;28;20175;-77
2021/08/12 02:25:28;;;;;;;6.47;4.72;;;;;;;;;;5088668;28;20038;-77
2021/08/12 02:27:55;;;;;;;6.53;5.28;;;;;;;;;;5111690;28;20099;-77
2021/08/12 02:30:21;;;;;;;6.30;4.93;;;;;;;;;;5074213;28;20052;-76
2021/08/12 02:32:49;;;;;;;7.80;5.40;;;;;;;;;;5092288;28;20079;-77
2021/08/12 02:35:17;;;;;;;6.22;5.63;;;;;;;;;;5090372;28;20446;-76
2021/08/12 02:37:43;;;;;;;12.73;5.30;;;;;;;;;;5091925;28;20409;-77
2021/08/12 02:40:09;;;;;;;11.05;5.40;;;;;;;;;;5091162;28;20056;-77
2021/08/12 02:42:40;;;;;;;5.28;4.75;;;;;;;;;;5075558;28;20047;-77
2021/08/12 02:45:07;;;;;;;7.13;5.50;;;;;;;;;;5073501;28;20410;-77
2021/08/12 02:47:34;;;;;;;11.98;6.07;;;;;;;;;;5075018;28;20447;-76
2021/08/12 02:50:03;;;;;;;8.45;5.43;;;;;;;;;;5091166;28;20128;-78
2021/08/12 02:52:29;;;;;;;9.63;6.00;;;;;;;;;;5092058;28;20169;-76
2021/08/12 02:54:55;;;;;;;8.73;6.63;;;;;;;;;;5086472;28;20035;-77
2021/08/12 02:57:21;;;;;;;8.25;5.75;;;;;;;;;;5071533;28;20025;-76
2021/08/12 02:59:48;;;;;;;6.55;5.68;;;;;;;;;;5086357;28;20039;-78
2021/08/12 03:02:16;;;;;;;7.18;5.80;;;;;;;;;;5092136;28;20074;-76
2021/08/12 03:04:43;;;;;;;7.20;5.93;;;;;;;;;;5090603;28;20054;-76
2021/08/12 03:07:10;;;;;;;8.88;5.93;;;;;;;;;;5091064;28;20047;-77
2021/08/12 03:09:37;;;;;;;7.47;5.22;;;;;;;;;;5070885;28;20032;-76
2021/08/12 03:12:04;;;;;;;9.55;5.10;;;;;;;;;;5071346;28;20043;-78
2021/08/12 03:14:32;;;;;;;6.10;5.20;;;;;;;;;;5053856;28;20127;-78
2021/08/12 03:16:58;;;;;;;6.05;5.03;;;;;;;;;;5070738;28;20051;-77
2021/08/12 03:19:25;;;;;;;9.98;4.60;;;;;;;;;;5074731;28;20436;-77
2021/08/12 03:22:11;;;;;;;9.52;5.57;;;;;;;;;;5074630;28;20081;-77
2021/08/12 03:24:39;;;;;;;7.07;5.70;;;;;;;;;;5108637;28;20019;-77
2021/08/12 03:27:08;;;;;;;8.05;5.07;;;;;;;;;;5111084;28;20054;-77
2021/08/12 03:29:33;;;;;;;6.78;5.18;;;;;;;;;;5082606;28;20511;-77
2021/08/12 03:31:59;;;;;;;12.13;6.43;;;;;;;;;;5088295;28;20071;-77
2021/08/12 03:34:24;;;;;;;8.65;6.22;;;;;;;;;;5070585;28;20129;-77
2021/08/12 03:36:50;;;;;;;12.07;5.50;;;;;;;;;;5070291;28;20037;-77
2021/08/12 03:39:15;;;;;;;6.05;4.93;;;;;;;;;;5075556;28;20032;-77
2021/08/12 03:41:41;;;;;;;8.07;5.28;;;;;;;;;;5075293;28;20032;-76
2021/08/12 03:44:07;;;;;;;8.75;5.53;;;;;;;;;;5095276;28;20032;-77
2021/08/12 03:46:33;;;;;;;6.82;5.68;;;;;;;;;;5095170;28;20036;-76
2021/08/12 03:48:58;;;;;;;10.70;5.63;;;;;;;;;;5094960;28;20032;-77
2021/08/12 03:51:25;;;;;;;5.53;4.95;;;;;;;;;;5078836;28;20537;-76
2021/08/12 03:53:50;;;;;;;18.75;5.75;;;;;;;;;;5094332;28;20849;-77
2021/08/12 03:56:16;;;;;;;6.82;5.97;;;;;;;;;;5093269;28;20040;-77
2021/08/12 03:58:41;;;;;;;8.43;5.40;;;;;;;;;;5095548;28;20066;-77
2021/08/12 04:01:07;;;;;;;6.70;5.95;;;;;;;;;;5094335;28;20028;-78
2021/08/12 04:03:33;;;;;;;13.20;6.80;;;;;;;;;;5095262;28;20016;-77
2021/08/12 04:05:59;;;;;;;8.18;6.65;;;;;;;;;;5076613;28;20054;-77
2021/08/12 04:08:24;;;;;;;8.93;5.93;;;;;;;;;;5096324;28;20028;-77
2021/08/12 04:10:50;;;;;;;9.93;6.53;;;;;;;;;;5076807;28;20776;-77
2021/08/12 04:13:17;;;;;;;8.43;5.80;;;;;;;;;;5078058;28;20032;-77
2021/08/12 04:15:42;;;;;;;8.85;5.88;;;;;;;;;;5076341;28;20374;-77
2021/08/12 04:18:08;;;;;;;7.53;6.10;;;;;;;;;;5093898;28;20489;-77
2021/08/12 04:20:33;;;;;;;8.52;6.10;;;;;;;;;;5077627;28;20106;-77
2021/08/12 04:22:59;;;;;;;6.85;5.47;;;;;;;;;;5094470;28;20185;-77
2021/08/12 04:25:25;;;;;;;7.88;5.18;;;;;;;;;;5073156;28;20103;-77
2021/08/12 04:27:50;;;;;;;7.00;6.20;;;;;;;;;;5057090;28;20036;-77
2021/08/12 04:30:17;;;;;;;7.65;6.22;;;;;;;;;;5081638;28;20027;-77
2021/08/12 04:32:42;;;;;;;7.25;5.50;;;;;;;;;;5076959;28;20051;-76
2021/08/12 04:35:08;;;;;;;11.50;6.13;;;;;;;;;;5076862;28;20032;-77
2021/08/12 04:37:45;;;;;;;7.53;5.72;;;;;;;;;;5092888;28;20042;-77
2021/08/12 04:40:12;;;;;;;5.75;5.20;;;;;;;;;;5073701;28;20189;-78
2021/08/12 04:42:37;;;;;;;8.57;5.72;;;;;;;;;;5075530;28;20409;-76
2021/08/12 04:45:03;;;;;;;12.02;7.28;;;;;;;;;;5073911;28;20809;-77
2021/08/12 04:47:29;;;;;;;8.48;7.57;;;;;;;;;;5085552;28;20040;-77
2021/08/12 04:49:54;;;;;;;11.10;8.43;;;;;;;;;;5075188;28;20051;-77
2021/08/12 04:52:20;;;;;;;14.85;8.25;;;;;;;;;;5076204;28;20355;-77
2021/08/12 04:54:46;;;;;;;14.45;8.38;;;;;;;;;;5076168;28;20089;-77
2021/08/12 04:57:11;;;;;;;10.00;8.00;;;;;;;;;;5074806;28;20428;-77
2021/08/12 04:59:37;;;;;;;8.35;6.65;;;;;;;;;;5094226;28;20036;-76
2021/08/12 05:02:03;;;;;;;8.52;6.95;;;;;;;;;;5073475;28;20089;-77
2021/08/12 05:04:29;;;;;;;11.45;7.97;;;;;;;;;;5074361;28;20048;-76
2021/08/12 05:06:55;;;;;;;10.77;8.38;;;;;;;;;;5071958;28;20041;-77
2021/08/12 05:09:20;;;;;;;15.63;7.45;;;;;;;;;;5073359;28;20032;-76
2021/08/12 05:11:47;;;;;;;10.63;7.38;;;;;;;;;;5087502;28;20043;-77
2021/08/12 05:14:12;;;;;;;14.05;7.95;;;;;;;;;;5076105;28;20066;-78
2021/08/12 05:16:38;;;;;;;13.10;9.90;;;;;;;;;;5075582;28;20028;-78
2021/08/12 05:19:03;;;;;;;14.48;10.05;;;;;;;;;;5093087;28;20032;-77
2021/08/12 05:21:29;;;;;;;15.55;9.43;;;;;;;;;;5076734;28;20612;-77
2021/08/12 05:23:54;;;;;;;12.23;8.77;;;;;;;;;;5076652;28;20064;-77
2021/08/12 05:26:20;;;;;;;18.95;10.25;;;;;;;;;;5092269;28;20052;-76
2021/08/12 05:28:45;;;;;;;15.00;9.65;;;;;;;;;;5080809;28;20046;-78
2021/08/12 05:31:13;;;;;;;17.02;9.60;;;;;;;;;;5089750;28;20024;-79
2021/08/12 05:33:39;;;;;;;18.13;10.77;;;;;;;;;;5076418;28;20090;-79
2021/08/12 05:36:05;;;;;;;40.35;11.00;;;;;;;;;;5078440;28;20040;-78
2021/08/12 05:38:31;;;;;;;10.80;9.00;;;;;;;;;;5061159;28;20028;-78
2021/08/12 05:40:57;;;;;;;21.83;8.85;;;;;;;;;;5097258;28;20111;-78
2021/08/12 05:43:24;;;;;;;16.10;9.20;;;;;;;;;;5103648;28;20028;-79
2021/08/12 05:45:50;;;;;;;13.27;9.20;;;;;;;;;;5082032;28;20082;-78
2021/08/12 05:48:16;;;;;;;13.70;8.80;;;;;;;;;;5084179;28;20081;-78
2021/08/12 05:50:45;;;;;;;13.93;8.43;;;;;;;;;;5107045;28;20040;-78
2021/08/12 05:53:12;;;;;;;12.07;8.65;;;;;;;;;;5090867;28;20028;-79
2021/08/12 05:55:38;;;;;;;9.32;7.53;;;;;;;;;;5071435;28;20470;-80
2021/08/12 05:58:04;;;;;;;26.08;8.90;;;;;;;;;;5065956;28;20098;-80
2021/08/12 06:00:29;;;;;;;15.50;9.05;;;;;;;;;;5066835;28;20486;-80
2021/08/12 06:02:55;;;;;;;10.90;8.15;;;;;;;;;;5087198;28;20044;-80
2021/08/12 06:05:29;;;;;;;9.27;6.93;;;;;;;;;;5089992;28;20030;-79
2021/08/12 06:07:54;;;;;;;11.85;7.50;;;;;;;;;;5083138;28;20063;-77
2021/08/12 06:10:21;;;;;;;9.23;7.10;;;;;;;;;;5082043;28;20481;-77
2021/08/12 06:12:47;;;;;;;9.02;7.38;;;;;;;;;;5086272;28;20039;-80
2021/08/12 06:15:12;;;;;;;8.77;7.38;;;;;;;;;;5105233;28;20028;-80
2021/08/12 06:17:38;;;;;;;8.55;6.80;;;;;;;;;;5085981;28;20039;-80
2021/08/12 06:20:04;;;;;;;12.23;6.30;;;;;;;;;;5086860;28;20057;-81
2021/08/12 06:22:31;;;;;;;11.85;7.20;;;;;;;;;;5082936;28;20084;-80
2021/08/12 06:24:57;;;;;;;8.05;6.60;;;;;;;;;;5067961;28;20038;-80
2021/08/12 06:27:23;;;;;;;9.23;7.00;;;;;;;;;;5065059;28;20070;-81
2021/08/12 06:29:48;;;;;;;8.13;6.95;;;;;;;;;;5095908;28;20042;-79
2021/08/12 06:32:14;;;;;;;11.00;7.40;;;;;;;;;;5095381;28;20097;-84
2021/08/12 06:34:40;;;;;;;15.45;6.85;;;;;;;;;;5081636;28;20055;-78
2021/08/12 06:37:05;;;;;;;8.25;6.80;;;;;;;;;;5080913;28;20093;-81
2021/08/12 06:39:31;;;;;;;10.40;6.53;;;;;;;;;;5097427;28;20126;-81
2021/08/12 06:41:57;;;;;;;12.07;7.28;;;;;;;;;;5070800;28;20056;-82
2021/08/12 06:44:28;;;;;;;12.18;6.50;;;;;;;;;;5071882;28;20115;-78
2021/08/12 06:46:54;;;;;;;13.30;6.40;;;;;;;;;;5072285;28;20063;-77
2021/08/12 06:49:19;;;;;;;7.68;6.40;;;;;;;;;;5093204;28;20036;-78
2021/08/12 06:51:47;;;;;;;10.88;6.97;;;;;;;;;;5094087;28;20032;-77
2021/08/12 06:54:13;;;;;;;10.95;7.55;;;;;;;;;;5094349;28;20071;-77
2021/08/12 06:56:40;;;;;;;10.73;6.78;;;;;;;;;;5093162;28;20028;-77
2021/08/12 06:59:07;;;;;;;8.60;6.20;;;;;;;;;;5076380;28;20118;-78
2021/08/12 07:01:33;;;;;;;7.28;5.60;;;;;;;;;;5078922;28;20039;-78
2021/08/12 07:03:59;;;;;;;7.88;6.10;;;;;;;;;;5081613;28;20028;-78
2021/08/12 07:06:25;;;;;;;6.70;5.20;;;;;;;;;;5083497;28;20066;-79
2021/08/12 07:08:53;;;;;;;8.10;4.63;;;;;;;;;;5079177;28;20032;-78
2021/08/12 07:11:20;;;;;;;9.30;5.32;;;;;;;;;;5079751;28;20508;-78
2021/08/12 07:13:46;;;;;;;7.35;5.05;;;;;;;;;;5095123;28;20081;-76
2021/08/12 07:16:14;;;;;;;6.10;4.95;;;;;;;;;;5094781;28;20454;-77
2021/08/12 07:18:41;;;;;;;6.47;4.55;;;;;;;;;;5081418;28;20044;-82
2021/08/12 07:21:18;;;;;;;8.75;5.07;;;;;;;;;;5063624;28;20059;-79
2021/08/12 07:23:49;;;;;;;14.98;4.13;;;;;;;;;;5096515;28;20497;-80
2021/08/12 07:26:17;;;;;;;5.07;4.35;;;;;;;;;;5065626;28;20111;-83
2021/08/12 07:28:45;;;;;;;6.05;4.70;;;;;;;;;;5081793;28;20047;-84
2021/08/12 07:31:12;;;;;;;6.30;4.45;;;;;;;;;;5064024;28;20036;-83
2021/08/12 07:33:38;;;;;;;10.65;4.80;;;;;;;;;;5065474;28;20060;-83
2021/08/12 07:36:05;;;;;;;5.68;4.10;;;;;;;;;;5100327;28;20040;-80
2021/08/12 07:38:31;;;;;;;9.52;5.40;;;;;;;;;;5063722;28;20036;-84
2021/08/12 07:40:58;;;;;;;6.90;4.32;;;;;;;;;;5064729;28;20029;-82
2021/08/12 07:43:24;;;;;;;6.68;5.00;;;;;;;;;;5090607;28;20028;-80
2021/08/12 07:45:49;;;;;;;7.32;5.20;;;;;;;;;;5099248;28;20057;-79
2021/08/12 07:48:15;;;;;;;10.07;5.18;;;;;;;;;;5080781;28;20042;-79
2021/08/12 07:50:42;;;;;;;8.82;4.63;;;;;;;;;;5097954;28;20032;-79
2021/08/12 07:53:09;;;;;;;8.75;4.82;;;;;;;;;;5099752;28;20499;-80
2021/08/12 07:55:35;;;;;;;10.23;4.35;;;;;;;;;;5078978;28;20880;-80
2021/08/12 07:58:03;;;;;;;9.15;4.78;;;;;;;;;;5080471;28;20577;-81
2021/08/12 08:00:29;;;;;;;10.05;4.45;;;;;;;;;;5081329;28;20416;-78
2021/08/12 08:02:54;;;;;;;9.32;4.35;;;;;;;;;;5068054;28;20044;-80
2021/08/12 08:05:21;;;;;;;5.97;4.13;;;;;;;;;;5102286;28;20031;-79
2021/08/12 08:07:49;;;;;;;7.95;4.22;;;;;;;;;;5100811;28;20032;-79
2021/08/12 08:10:16;;;;;;;4.97;4.00;;;;;;;;;;5102241;28;20046;-80
2021/08/12 08:12:42;;;;;;;7.07;4.47;;;;;;;;;;5086967;28;20044;-79
2021/08/12 08:15:09;;;;;;;9.50;5.15;;;;;;;;;;5109462;28;20032;-79
2021/08/12 08:17:35;;;;;;;9.35;4.18;;;;;;;;;;5122711;28;20410;-78
2021/08/12 08:20:01;;;;;;;7.45;4.00;;;;;;;;;;5106249;28;20035;-79
2021/08/12 08:22:26;;;;;;;6.70;4.18;;;;;;;;;;5103888;28;20496;-80
2021/08/12 08:24:52;;;;;;;6.95;4.07;;;;;;;;;;5081451;28;20091;-82
2021/08/12 08:27:17;;;;;;;5.35;4.38;;;;;;;;;;5082347;28;20036;-81
2021/08/12 08:29:42;;;;;;;12.95;5.65;;;;;;;;;;5079627;28;20040;-81
2021/08/12 08:32:08;;;;;;;10.27;4.90;;;;;;;;;;5091862;28;20032;-82
2021/08/12 08:34:34;;;;;;;13.15;3.88;;;;;;;;;;5074977;28;20486;-81
2021/08/12 08:37:00;;;;;;;5.63;3.92;;;;;;;;;;5101168;28;20024;-81
2021/08/12 08:39:27;;;;;;;9.02;4.90;;;;;;;;;;5103538;28;20063;-82
2021/08/12 08:41:53;;;;;;;10.05;3.97;;;;;;;;;;5116049;28;20508;-82
2021/08/12 08:44:21;;;;;;;7.13;4.28;;;;;;;;;;5109197;28;20535;-83
2021/08/12 08:46:47;;;;;;;6.75;4.07;;;;;;;;;;5098607;28;20406;-84
2021/08/12 08:49:14;;;;;;;7.20;3.55;;;;;;;;;;5091086;28;20035;-82
2021/08/12 08:51:40;;;;;;;4.10;3.15;;;;;;;;;;5077735;28;20028;-85
2021/08/12 08:54:06;;;;;;;4.53;3.08;;;;;;;;;;5100341;28;20126;-83
2021/08/12 08:56:31;;;;;;;5.25;3.72;;;;;;;;;;5082620;28;20137;-84
2021/08/12 08:58:59;;;;;;;3.58;3.13;;;;;;;;;;5083947;28;20139;-84
2021/08/12 09:01:24;;;;;;;4.97;3.67;;;;;;;;;;5101462;28;20386;-83
2021/08/12 09:03:49;;;;;;;12.13;3.58;;;;;;;;;;5079090;28;20127;-79
2021/08/12 09:06:15;;;;;;;4.80;3.30;;;;;;;;;;5068681;28;20101;-81
2021/08/12 09:08:40;;;;;;;8.05;3.60;;;;;;;;;;5078358;28;20024;-81
2021/08/12 09:11:06;;;;;;;4.55;3.05;;;;;;;;;;5093018;28;20715;-82
2021/08/12 09:13:31;;;;;;;4.38;3.10;;;;;;;;;;5089873;28;20433;-82
2021/08/12 09:15:57;;;;;;;4.63;3.50;;;;;;;;;;5078285;28;20021;-83
2021/08/12 09:18:27;;;;;;;6.32;3.50;;;;;;;;;;5070442;28;20032;-83
2021/08/12 09:20:56;;;;;;;5.03;3.53;;;;;;;;;;5062760;28;20051;-81
2021/08/12 09:23:27;;;;;;;4.28;3.30;;;;;;;;;;5078083;28;20052;-79
2021/08/12 09:25:53;;;;;;;4.43;3.22;;;;;;;;;;5083231;28;20107;-80
2021/08/12 09:28:32;;;;;;;7.85;3.72;;;;;;;;;;5064005;28;20036;-80
2021/08/12 09:30:58;;;;;;;5.00;3.30;;;;;;;;;;5065266;28;20092;-83
2021/08/12 09:33:24;;;;;;;7.25;3.25;;;;;;;;;;5087437;28;20055;-83
2021/08/12 09:35:50;;;;;;;6.47;3.80;;;;;;;;;;5097069;28;20028;-82
2021/08/12 09:38:16;;;;;;;6.07;3.40;;;;;;;;;;5080034;28;20040;-81
2021/08/12 09:40:45;;;;;;;8.68;3.60;;;;;;;;;;5077815;28;20032;-82
2021/08/12 09:43:10;;;;;;;6.70;3.45;;;;;;;;;;5063202;28;20052;-83
2021/08/12 09:45:39;;;;;;;4.40;2.92;;;;;;;;;;5091345;28;20047;-82
2021/08/12 09:48:13;;;;;;;3.47;2.90;;;;;;;;;;5081401;28;20036;-82
2021/08/12 09:50:40;;;;;;;7.30;3.95;;;;;;;;;;5079803;28;20378;-82
2021/08/12 09:53:07;;;;;;;6.05;3.40;;;;;;;;;;5080308;28;20067;-81
2021/08/12 09:55:40;;;;;;;3.92;3.17;;;;;;;;;;5080908;28;20093;-83
2021/08/12 09:58:09;;;;;;;14.32;3.22;;;;;;;;;;5081652;28;20040;-80
2021/08/12 10:00:44;;;;;;;5.90;3.35;;;;;;;;;;5094056;28;20498;-78
2021/08/12 10:03:32;;;;;;;7.03;3.25;;;;;;;;;;5092841;28;20439;-78
2021/08/12 10:05:59;;;;;;;;;;;;;;;;;;5093586;28;20123;-77
2021/08/12 10:08:31;;;;;;;4.25;2.80;;;;;;;;;;5100187;28;19912;-82
2021/08/12 10:11:14;;;;;;;5.47;3.30;;;;;;;;;;5103022;28;20155;-81
2021/08/12 10:13:39;;;;;;;4.75;3.63;;;;;;;;;;5086738;28;20038;-81
2021/08/12 10:16:05;;;;;;;5.47;3.22;;;;;;;;;;5083611;28;20029;-81
2021/08/12 10:18:30;;;;;;;5.15;3.40;;;;;;;;;;5083762;28;20039;-81
2021/08/12 10:20:56;;;;;;;5.00;3.20;;;;;;;;;;5077773;28;20043;-81
2021/08/12 10:23:22;;;;;;;6.38;3.42;;;;;;;;;;5078215;28;20146;-81
2021/08/12 10:25:57;;;;;;;4.20;3.13;;;;;;;;;;5092857;28;20052;-81
2021/08/12 10:28:24;;;;;;;5.43;3.33;;;;;;;;;;5099412;28;20036;-77
2021/08/12 10:30:53;;;;;;;7.78;3.58;;;;;;;;;;5096028;28;20032;-83
2021/08/12 10:33:19;;;;;;;7.63;2.85;;;;;;;;;;5083376;28;20086;-80
2021/08/12 10:35:46;;;;;;;6.07;3.03;;;;;;;;;;5094776;28;20119;-80
2021/08/12 10:38:11;;;;;;;10.25;3.40;;;;;;;;;;5101937;28;20093;-82
2021/08/12 10:40:39;;;;;;;7.88;3.05;;;;;;;;;;5087216;28;20042;-81
2021/08/12 10:43:06;;;;;;;6.20;3.55;;;;;;;;;;5084673;28;20043;-80
2021/08/12 10:45:32;;;;;;;11.98;3.47;;;;;;;;;;5100137;28;20116;-79
2021/08/12 10:48:00;;;;;;;8.32;3.22;;;;;;;;;;5101101;28;20044;-80
2021/08/12 10:50:27;;;;;;;4.65;2.97;;;;;;;;;;5095781;28;20040;-82
2021/08/12 10:53:01;;;;;;;9.45;3.38;;;;;;;;;;5094882;28;20028;-82
2021/08/12 10:55:28;;;;;;;3.85;2.85;;;;;;;;;;5057918;28;20132;-83
2021/08/12 10:58:18;;;;;;;4.45;3.35;;;;;;;;;;5061056;28;20032;-81
2021/08/12 11:00:55;;;;;;;8.90;3.10;;;;;;;;;;5075364;28;20381;-78
2021/08/12 11:03:33;;;;;;;7.57;3.10;;;;;;;;;;5073432;28;20029;-78
2021/08/12 11:06:08;;;;;;;10.18;7.82;;;;;;;;;;5083253;28;20378;-78
2021/08/12 11:08:49;;;;;;;3.53;2.83;;;;;;;;;;5099759;28;20028;-78
2021/08/12 11:11:20;;;;;;;10.23;3.17;;;;;;;;;;5093721;28;20096;-78
2021/08/12 11:13:50;;;;;;;5.97;2.90;;;;;;;;;;5094852;28;20040;-78
2021/08/12 11:16:17;;;;;;;7.40;3.90;;;;;;;;;;5073725;28;20036;-78
2021/08/12 11:18:57;;;;;;;4.85;2.90;;;;;;;;;;5073816;28;20398;-78
2021/08/12 11:21:32;;;;;;;4.68;3.20;;;;;;;;;;5073562;28;20494;-77
2021/08/12 11:23:59;;;;;;;9.23;3.03;;;;;;;;;;5080515;28;20047;-77
2021/08/12 11:26:25;;;;;;;6.82;3.28;;;;;;;;;;5093550;28;20032;-78
2021/08/12 11:28:55;;;;;;;5.78;3.78;;;;;;;;;;5094727;28;20093;-77
2021/08/12 11:31:20;;;;;;;5.10;2.80;;;;;;;;;;5094050;28;20028;-80
2021/08/12 11:33:53;;;;;;;6.35;3.30;;;;;;;;;;5095055;28;20055;-82
2021/08/12 11:36:31;;;;;;;9.18;3.22;;;;;;;;;;5083408;28;20032;-78
2021/08/12 11:39:01;;;;;;;6.75;3.80;;;;;;;;;;5098542;28;20105;-81
2021/08/12 11:41:37;;;;;;;6.80;3.28;;;;;;;;;;5097579;28;20061;-87
2021/08/12 11:44:07;;;;;;;3.83;2.63;;;;;;;;;;5087634;28;20417;-80
2021/08/12 11:46:39;;;;;;;6.85;3.10;;;;;;;;;;5105108;28;20031;-82
2021/08/12 11:49:05;;;;;;;3.63;2.65;;;;;;;;;;5099703;28;20032;-82
2021/08/12 11:51:32;;;;;;;4.15;3.17;;;;;;;;;;5097037;28;20020;-81
2021/08/12 11:53:58;;;;;;;5.07;2.85;;;;;;;;;;5096947;28;20032;-81
2021/08/12 11:56:27;;;;;;;3.70;2.47;;;;;;;;;;5076913;28;20048;-79
2021/08/12 11:58:58;;;;;;;8.35;2.97;;;;;;;;;;5077861;28;20497;-79
2021/08/12 12:01:26;;;;;;;3.90;2.67;;;;;;;;;;5093442;28;20049;-79
2021/08/12 12:03:57;;;;;;;4.40;2.97;;;;;;;;;;5096536;28;20028;-80
2021/08/12 12:06:30;;;;;;;3.90;2.63;;;;;;;;;;5098108;28;20032;-79
2021/08/12 12:08:55;;;;;;;4.53;2.85;;;;;;;;;;5093460;28;20058;-80
2021/08/12 12:11:20;;;;;;;7.55;3.05;;;;;;;;;;5077525;28;20052;-80
2021/08/12 12:13:46;;;;;;;3.85;2.90;;;;;;;;;;5059000;28;20040;-79
2021/08/12 12:16:11;;;;;;;10.77;2.67;;;;;;;;;;5078003;28;20041;-79
2021/08/12 12:18:43;;;;;;;8.15;2.80;;;;;;;;;;5096916;28;20085;-79
2021/08/12 12:21:14;;;;;;;4.00;2.85;;;;;;;;;;5081441;28;20489;-78
2021/08/12 12:23:43;;;;;;;5.38;2.75;;;;;;;;;;5095799;28;20036;-79
2021/08/12 12:26:24;;;;;;;3.88;2.78;;;;;;;;;;5097485;28;20028;-78
2021/08/12 12:28:50;;;;;;;3.15;2.38;;;;;;;;;;5076318;28;20028;-78
2021/08/12 12:31:18;;;;;;;4.43;2.80;;;;;;;;;;5077075;28;20033;-79
2021/08/12 12:33:57;;;;;;;4.30;2.58;;;;;;;;;;5093320;28;20040;-79
2021/08/12 12:36:24;;;;;;;4.63;2.75;;;;;;;;;;5096636;28;20428;-79
2021/08/12 12:38:52;;;;;;;4.95;2.80;;;;;;;;;;5097436;28;20127;-78
2021/08/12 12:41:18;;;;;;;3.67;2.70;;;;;;;;;;5096140;28;20043;-78
2021/08/12 12:43:44;;;;;;;5.25;2.83;;;;;;;;;;5094321;28;20020;-79
2021/08/12 12:46:10;;;;;;;6.00;2.60;;;;;;;;;;5076764;28;20081;-79
2021/08/12 12:48:39;;;;;;;5.13;2.97;;;;;;;;;;5091884;28;20673;-78
2021/08/12 12:51:06;;;;;;;3.80;2.58;;;;;;;;;;5098149;28;20477;-78
2021/08/12 12:53:40;;;;;;;8.40;2.95;;;;;;;;;;5096866;28;20106;-78
2021/08/12 12:56:19;;;;;;;6.37;3.10;;;;;;;;;;5096141;28;20401;-78
2021/08/12 12:58:45;;;;;;;5.00;2.40;;;;;;;;;;5097072;28;20039;-79
2021/08/12 13:01:18;;;;;;;4.47;2.60;;;;;;;;;;5096189;28;20036;-78
2021/08/12 13:03:46;;;;;;;3.50;2.60;;;;;;;;;;5094298;28;20036;-80
2021/08/12 13:06:13;;;;;;;5.25;2.58;;;;;;;;;;5095749;28;20370;-78
2021/08/12 13:08:48;;;;;;;4.57;2.80;;;;;;;;;;5095256;28;20028;-78
2021/08/12 13:11:17;;;;;;;;;;;;;;;;;;5097911;28;20115;-78
2021/08/12 13:13:46;;;;;;;4.13;2.50;;;;;;;;;;5095321;28;19912;-79
2021/08/12 13:16:14;;;;;;;5.75;2.92;;;;;;;;;;5094976;28;20040;-78
2021/08/12 13:18:58;;;;;;;4.82;3.10;;;;;;;;;;5078035;28;20032;-79
2021/08/12 13:21:30;;;;;;;4.32;3.13;;;;;;;;;;5096227;28;20084;-79
2021/08/12 13:23:57;;;;;;;7.53;2.83;;;;;;;;;;5095298;28;20090;-79
2021/08/12 13:26:54;;;;;;;5.53;2.97;;;;;;;;;;5096900;28;20024;-79
2021/08/12 13:29:25;;;;;;;5.60;2.90;;;;;;;;;;5073484;28;20045;-78
2021/08/12 13:31:53;;;;;;;4.00;2.67;;;;;;;;;;5074824;28;20036;-79
2021/08/12 13:34:22;;;;;;;7.97;2.65;;;;;;;;;;5073223;28;20045;-79
2021/08/12 13:36:47;;;;;;;3.95;2.88;;;;;;;;;;5074799;28;20036;-78
2021/08/12 13:39:13;;;;;;;8.00;3.00;;;;;;;;;;5090390;28;20039;-79
2021/08/12 13:41:46;;;;;;;4.25;2.80;;;;;;;;;;5095981;28;20608;-78
2021/08/12 13:44:11;;;;;;;4.22;2.50;;;;;;;;;;5096518;28;20039;-79
2021/08/12 13:46:37;;;;;;;4.10;2.97;;;;;;;;;;5095587;28;20118;-79
2021/08/12 13:49:02;;;;;;;2.78;2.20;;;;;;;;;;5083319;28;20037;-78
2021/08/12 13:51:29;;;;;;;5.35;2.60;;;;;;;;;;5076837;28;20036;-78
2021/08/12 13:53:56;;;;;;;7.20;2.97;;;;;;;;;;5090252;28;20036;-80
2021/08/12 13:56:21;;;;;;;4.22;2.80;;;;;;;;;;5116282;28;20537;-78
2021/08/12 13:58:47;;;;;;;3.92;2.63;;;;;;;;;;5115487;28;20035;-79
2021/08/12 14:01:12;;;;;;;5.25;3.25;;;;;;;;;;5097191;28;20035;-79
2021/08/12 14:03:38;;;;;;;3.60;3.10;;;;;;;;;;5115891;28;20035;-78
2021/08/12 14:06:03;;;;;;;5.30;3.15;;;;;;;;;;5116549;28;20095;-79
2021/08/12 14:08:28;;;;;;;4.60;3.17;;;;;;;;;;5091116;28;20028;-78
2021/08/12 14:10:56;;;;;;;4.88;2.83;;;;;;;;;;5094741;28;20036;-78
2021/08/12 14:13:21;;;;;;;3.85;2.80;;;;;;;;;;5094839;28;20428;-78
2021/08/12 14:15:47;;;;;;;5.90;3.13;;;;;;;;;;5093645;28;20040;-78
2021/08/12 14:18:12;;;;;;;6.10;3.17;;;;;;;;;;5094576;28;20040;-78
2021/08/12 14:20:38;;;;;;;4.90;2.60;;;;;;;;;;5078171;28;20035;-78
2021/08/12 14:23:03;;;;;;;4.35;2.70;;;;;;;;;;5078002;28;20036;-80
2021/08/12 14:25:29;;;;;;;3.67;2.78;;;;;;;;;;5074993;28;20068;-79
2021/08/12 14:27:54;;;;;;;5.18;2.95;;;;;;;;;;5075203;28;20039;-79
2021/08/12 14:30:19;;;;;;;5.45;2.90;;;;;;;;;;5075324;28;20054;-78
2021/08/12 14:32:45;;;;;;;7.15;2.85;;;;;;;;;;5077170;28;20051;-79
2021/08/12 14:35:10;;;;;;;7.53;3.03;;;;;;;;;;5075228;28;20054;-79
2021/08/12 14:37:36;;;;;;;5.13;3.38;;;;;;;;;;5095646;28;20363;-77
2021/08/12 14:40:04;;;;;;;4.85;3.15;;;;;;;;;;5093170;28;20115;-77
2021/08/12 14:42:30;;;;;;;4.30;3.20;;;;;;;;;;5094956;28;20036;-78
2021/08/12 14:44:55;;;;;;;6.90;3.30;;;;;;;;;;5075449;28;20050;-77